Bandeirantes, Brazil
Current Conditions -  °F | °C
As of 1:00 PM on Thursday 29 Jan 2015 (Local Time) from SBCG Reporting Station
Rain Showers Rain Showers  
Wind Chill: 81°   Ceiling: 2300
Heat Index: 84°   Visibility: 6mi
Dew Point: 70°   Wind: 14mph
Humidity: 70%   Direction: 310°NW
Pressure: 30"   Gusts: NA
Location:  19.92°S, 54.36°W
Report Text: SBCG 291600Z 31012KT 9999 VCSH BKN023 SCT100 27/21 Q1016
Loading
Personal Weather Stations






























Interactive Weather Map New forecast layout! Learn more

10-Day Weather Forecast

Advertisements
Track Severe Weather on mobile